Bruna Cristina — CUBN9 — position and weather

sailwx.info

Track history (hours):
 
Tides and Currents Weather Stations Pressure Air Temp Water Temp Dewpoint Dewpoint Depression Visibility Wind Speed Wind Dir Waves Ship Positions

Bruna Cristina

Last reported at 2018-Jan-18 20:00 UTC. Time now 2018-Jan-23 23:25 UTC.
Position N 41°13' W 008°47'.

Length 17 m.

Type: Fishing. MMSI: 263282000.

Date/timePositionNaut miles runAvg speedWind from/ knotsBaromVisibWave heightAir tempDewpointWater temp
2018-Jan-18 20:00N 41°13' W 008°47'3 5.7
2018-Jan-18 19:30N 41°11' W 008°45'2 3.8
2018-Jan-18 19:00N 41°11' W 008°42'0 0.0
2018-Jan-18 18:30N 41°11' W 008°42'0 0.0
2018-Jan-18 18:00N 41°11' W 008°42'0 0.1
2018-Jan-18 17:30N 41°11' W 008°42'4 0.2
2018-Jan-18 00:40N 41°12' W 008°47'3 5.3
2018-Jan-18 00:00N 41°11' W 008°42'0 5.6
2018-Jan-17 23:58N 41°11' W 008°42'  
2018-Jan-11 10:34N 41°13' W 008°45'0 5.9
2018-Jan-11 10:30N 41°13' W 008°45'3 5.9
2018-Jan-11 10:00N 41°10' W 008°43'1 1.8
2018-Jan-11 09:30N 41°11' W 008°42'  
2018-Jan-09 01:43N 41°11' W 008°42'0 0.0
2018-Jan-09 01:30N 41°11' W 008°42'0 0.0
2018-Jan-09 01:00N 41°11' W 008°42'1 1.2
2018-Jan-09 00:30N 41°10' W 008°42'3 6.5
2018-Jan-09 00:00N 41°12' W 008°46'  
Track history (hours):
 
Tides and Currents Weather Stations Pressure Air Temp Water Temp Dewpoint Dewpoint Depression Visibility Wind Speed Wind Dir Waves Ship Positions

Bruna Cristina

Last reported at 2018-Jan-18 20:00 UTC. Time now 2018-Jan-23 23:25 UTC.
Position N 41°13' W 008°47'.

Length 17 m.

Type: Fishing. MMSI: 263282000.

Date/timePositionNaut miles runAvg speedWind from/ knotsBaromVisibWave heightAir tempDewpointWater temp
2018-Jan-18 20:00N 41°13' W 008°47'3 5.7
2018-Jan-18 19:30N 41°11' W 008°45'2 3.8
2018-Jan-18 19:00N 41°11' W 008°42'0 0.0
2018-Jan-18 18:30N 41°11' W 008°42'0 0.0
2018-Jan-18 18:00N 41°11' W 008°42'0 0.1
2018-Jan-18 17:30N 41°11' W 008°42'4 0.2
2018-Jan-18 00:40N 41°12' W 008°47'3 5.3
2018-Jan-18 00:00N 41°11' W 008°42'0 5.6
2018-Jan-17 23:58N 41°11' W 008°42'  
2018-Jan-11 10:34N 41°13' W 008°45'0 5.9
2018-Jan-11 10:30N 41°13' W 008°45'3 5.9
2018-Jan-11 10:00N 41°10' W 008°43'1 1.8
2018-Jan-11 09:30N 41°11' W 008°42'  
2018-Jan-09 01:43N 41°11' W 008°42'0 0.0
2018-Jan-09 01:30N 41°11' W 008°42'0 0.0
2018-Jan-09 01:00N 41°11' W 008°42'1 1.2
2018-Jan-09 00:30N 41°10' W 008°42'3 6.5
2018-Jan-09 00:00N 41°12' W 008°46'  

Dump ship's entire track history